This is the latest recevied weather packets stored in our database for station/object WX4FUN-13. If no packets are shown the sender has not sent any weather packets the latest 10 day(s).
| Time | Temp. | Humidity | Pressure | Rain* | Wind** | Luminosity | Snow |
|---|---|---|---|---|---|---|---|
| 1777909272 | 19.44° C | 34% | 1010.7 hPa | 0 mm | - | 869 W/m² | - |
| 1777908672 | 19.44° C | 34% | 1010.8 hPa | 0 mm | - | 860 W/m² | - |
| 1777908074 | 19.44° C | 34% | 1010.7 hPa | 0 mm | - | 848 W/m² | - |
| 1777907473 | 18.89° C | 35% | 1011 hPa | 0 mm | - | 833 W/m² | - |
| 1777906873 | 18.89° C | 34% | 1011 hPa | 0 mm | - | 820 W/m² | - |
| 1777906273 | 18.89° C | 34% | 1011.1 hPa | 0 mm | - | 733 W/m² | - |
| 1777905669 | 18.33° C | 36% | 1011.1 hPa | 0 mm | - | 791 W/m² | - |
| 1777905069 | 18.33° C | 36% | 1011.4 hPa | 0 mm | - | 743 W/m² | - |
| 1777904470 | 17.78° C | 37% | 1011.3 hPa | 0 mm | - | 519 W/m² | - |
| 1777903871 | 17.78° C | 37% | 1011.4 hPa | 0 mm | - | 608 W/m² | - |
| 1777903271 | 17.78° C | 39% | 1011.6 hPa | 0 mm | - | 683 W/m² | - |
| 1777902670 | 17.22° C | 39% | 1011.5 hPa | 0 mm | - | 583 W/m² | - |
| 1777902069 | 17.22° C | 39% | 1011.6 hPa | 0 mm | - | 661 W/m² | - |
| 1777901469 | 16.67° C | 40% | 1011.7 hPa | 0 mm | - | 593 W/m² | - |
| 1777900870 | 16.11° C | 41% | 1011.7 hPa | 0 mm | - | 532 W/m² | - |
| 1777900282 | 15.56° C | 42% | 1011.9 hPa | 0 mm | - | 516 W/m² | - |
| 1777899670 | 15° C | 43% | 1011.9 hPa | 0 mm | - | 487 W/m² | - |
| 1777899070 | 14.44° C | 45% | 1012 hPa | 0 mm | - | 412 W/m² | - |
| 1777898466 | 13.89° C | 49% | 1012.2 hPa | 0 mm | - | 423 W/m² | - |
| 1777897867 | 13.33° C | 50% | 1012.3 hPa | 0 mm | - | 386 W/m² | - |
| 1777897267 | 12.78° C | 52% | 1012.3 hPa | 0 mm | - | 350 W/m² | - |
| 1777896665 | 11.67° C | 54% | 1012.4 hPa | 0 mm | - | 313 W/m² | - |
| 1777896065 | 10.56° C | 58% | 1012.5 hPa | 0 mm | - | 275 W/m² | - |
| 1777895467 | 9.44° C | 62% | 1012.4 hPa | 0 mm | - | 71 W/m² | - |
| 1777894852 | 8.89° C | 65% | 1012.5 hPa | 0 mm | - | 221 W/m² | - |
* Rain latest hour (hover to see other rain measurements)
** Current wind speed in m/s (hover to see current wind gust speed)